sensor_id;sensor_type;location;lat;lon;timestamp;P1;durP1;ratioP1;P2;durP2;ratioP2
15287;SDS011;7745;48.708;9.026;2022-09-12T00:01:02;6.93;;;6.33;;
15287;SDS011;7745;48.708;9.026;2022-09-12T00:03:32;8.57;;;7.07;;
15287;SDS011;7745;48.708;9.026;2022-09-12T00:05:59;6.97;;;6.37;;
15287;SDS011;7745;48.708;9.026;2022-09-12T00:08:26;7.27;;;6.57;;
15287;SDS011;7745;48.708;9.026;2022-09-12T00:10:53;9.20;;;7.07;;
15287;SDS011;7745;48.708;9.026;2022-09-12T00:13:20;7.87;;;7.17;;
15287;SDS011;7745;48.708;9.026;2022-09-12T00:15:46;7.77;;;6.97;;
15287;SDS011;7745;48.708;9.026;2022-09-12T00:18:14;9.27;;;6.90;;
15287;SDS011;7745;48.708;9.026;2022-09-12T00:20:44;7.40;;;6.57;;
15287;SDS011;7745;48.708;9.026;2022-09-12T00:23:12;8.40;;;7.50;;
15287;SDS011;7745;48.708;9.026;2022-09-12T00:25:40;8.37;;;7.60;;
15287;SDS011;7745;48.708;9.026;2022-09-12T00:28:07;9.77;;;7.37;;
15287;SDS011;7745;48.708;9.026;2022-09-12T00:30:38;8.33;;;7.33;;
15287;SDS011;7745;48.708;9.026;2022-09-12T00:33:05;8.33;;;7.07;;
15287;SDS011;7745;48.708;9.026;2022-09-12T00:35:32;8.77;;;7.10;;
15287;SDS011;7745;48.708;9.026;2022-09-12T00:38:00;8.13;;;7.33;;
15287;SDS011;7745;48.708;9.026;2022-09-12T00:40:27;10.10;;;6.73;;
15287;SDS011;7745;48.708;9.026;2022-09-12T00:42:54;7.20;;;6.50;;
15287;SDS011;7745;48.708;9.026;2022-09-12T00:45:22;7.93;;;6.90;;
15287;SDS011;7745;48.708;9.026;2022-09-12T00:47:52;8.70;;;7.40;;
15287;SDS011;7745;48.708;9.026;2022-09-12T00:50:20;11.60;;;7.30;;
15287;SDS011;7745;48.708;9.026;2022-09-12T00:52:48;8.63;;;7.27;;
15287;SDS011;7745;48.708;9.026;2022-09-12T00:55:20;8.17;;;7.33;;
15287;SDS011;7745;48.708;9.026;2022-09-12T00:57:50;8.93;;;7.20;;
15287;SDS011;7745;48.708;9.026;2022-09-12T01:00:21;10.70;;;7.20;;
15287;SDS011;7745;48.708;9.026;2022-09-12T01:02:50;8.23;;;7.43;;
15287;SDS011;7745;48.708;9.026;2022-09-12T01:05:21;9.23;;;7.33;;
15287;SDS011;7745;48.708;9.026;2022-09-12T01:07:49;8.50;;;7.70;;
15287;SDS011;7745;48.708;9.026;2022-09-12T01:10:19;9.10;;;7.53;;
15287;SDS011;7745;48.708;9.026;2022-09-12T01:12:45;8.33;;;7.43;;
15287;SDS011;7745;48.708;9.026;2022-09-12T01:15:13;8.30;;;7.13;;
15287;SDS011;7745;48.708;9.026;2022-09-12T01:17:44;7.77;;;6.53;;
15287;SDS011;7745;48.708;9.026;2022-09-12T01:20:29;8.00;;;7.20;;
15287;SDS011;7745;48.708;9.026;2022-09-12T01:23:16;6.73;;;6.00;;
15287;SDS011;7745;48.708;9.026;2022-09-12T01:26:17;8.03;;;6.83;;
15287;SDS011;7745;48.708;9.026;2022-09-12T01:29:13;8.80;;;7.90;;
15287;SDS011;7745;48.708;9.026;2022-09-12T01:32:01;9.13;;;6.87;;
15287;SDS011;7745;48.708;9.026;2022-09-12T01:34:34;7.63;;;6.93;;
15287;SDS011;7745;48.708;9.026;2022-09-12T01:37:09;8.40;;;6.77;;
15287;SDS011;7745;48.708;9.026;2022-09-12T01:39:43;8.03;;;6.80;;
15287;SDS011;7745;48.708;9.026;2022-09-12T01:42:19;7.27;;;6.53;;
15287;SDS011;7745;48.708;9.026;2022-09-12T01:44:52;7.37;;;6.67;;
15287;SDS011;7745;48.708;9.026;2022-09-12T01:47:26;12.43;;;7.50;;
15287;SDS011;7745;48.708;9.026;2022-09-12T01:49:59;10.07;;;6.63;;
15287;SDS011;7745;48.708;9.026;2022-09-12T01:52:30;7.43;;;6.83;;
15287;SDS011;7745;48.708;9.026;2022-09-12T01:55:04;9.57;;;7.00;;
15287;SDS011;7745;48.708;9.026;2022-09-12T01:57:37;7.70;;;6.90;;
15287;SDS011;7745;48.708;9.026;2022-09-12T02:00:09;8.07;;;7.33;;
15287;SDS011;7745;48.708;9.026;2022-09-12T02:02:39;7.33;;;6.53;;
15287;SDS011;7745;48.708;9.026;2022-09-12T02:05:09;7.90;;;6.93;;
15287;SDS011;7745;48.708;9.026;2022-09-12T02:07:41;7.13;;;6.43;;
15287;SDS011;7745;48.708;9.026;2022-09-12T02:10:11;10.67;;;7.17;;
15287;SDS011;7745;48.708;9.026;2022-09-12T02:12:41;8.03;;;7.07;;
15287;SDS011;7745;48.708;9.026;2022-09-12T02:15:12;8.77;;;7.43;;
15287;SDS011;7745;48.708;9.026;2022-09-12T02:17:44;8.00;;;6.73;;
15287;SDS011;7745;48.708;9.026;2022-09-12T02:20:15;7.83;;;7.03;;
15287;SDS011;7745;48.708;9.026;2022-09-12T02:22:47;9.57;;;6.90;;
15287;SDS011;7745;48.708;9.026;2022-09-12T02:25:16;7.53;;;6.67;;
15287;SDS011;7745;48.708;9.026;2022-09-12T02:27:45;7.57;;;6.77;;
15287;SDS011;7745;48.708;9.026;2022-09-12T02:30:16;8.13;;;6.37;;
15287;SDS011;7745;48.708;9.026;2022-09-12T02:32:47;9.30;;;7.40;;
15287;SDS011;7745;48.708;9.026;2022-09-12T02:35:25;7.40;;;6.67;;
15287;SDS011;7745;48.708;9.026;2022-09-12T02:37:58;8.93;;;7.00;;
15287;SDS011;7745;48.708;9.026;2022-09-12T02:40:29;7.80;;;6.00;;
15287;SDS011;7745;48.708;9.026;2022-09-12T02:42:57;11.03;;;7.40;;
15287;SDS011;7745;48.708;9.026;2022-09-12T02:45:26;10.47;;;6.90;;
15287;SDS011;7745;48.708;9.026;2022-09-12T02:47:55;8.27;;;7.10;;
15287;SDS011;7745;48.708;9.026;2022-09-12T02:50:27;7.47;;;6.73;;
15287;SDS011;7745;48.708;9.026;2022-09-12T02:52:54;10.27;;;6.90;;
15287;SDS011;7745;48.708;9.026;2022-09-12T02:55:24;9.17;;;7.13;;
15287;SDS011;7745;48.708;9.026;2022-09-12T02:57:51;8.97;;;6.93;;
15287;SDS011;7745;48.708;9.026;2022-09-12T03:00:18;7.90;;;7.10;;
15287;SDS011;7745;48.708;9.026;2022-09-12T03:02:51;7.77;;;6.37;;
15287;SDS011;7745;48.708;9.026;2022-09-12T03:05:32;7.47;;;6.57;;
15287;SDS011;7745;48.708;9.026;2022-09-12T03:08:10;10.50;;;6.50;;
15287;SDS011;7745;48.708;9.026;2022-09-12T03:10:56;11.23;;;7.03;;
15287;SDS011;7745;48.708;9.026;2022-09-12T03:13:43;8.23;;;6.77;;
15287;SDS011;7745;48.708;9.026;2022-09-12T03:16:20;7.37;;;6.67;;
15287;SDS011;7745;48.708;9.026;2022-09-12T03:18:57;7.53;;;6.70;;
15287;SDS011;7745;48.708;9.026;2022-09-12T03:21:29;8.50;;;6.90;;
15287;SDS011;7745;48.708;9.026;2022-09-12T03:24:04;7.43;;;6.63;;
15287;SDS011;7745;48.708;9.026;2022-09-12T03:26:39;8.87;;;6.90;;
15287;SDS011;7745;48.708;9.026;2022-09-12T03:29:09;9.60;;;7.07;;
15287;SDS011;7745;48.708;9.026;2022-09-12T03:31:46;8.17;;;6.27;;
15287;SDS011;7745;48.708;9.026;2022-09-12T03:34:15;7.77;;;6.63;;
15287;SDS011;7745;48.708;9.026;2022-09-12T03:36:42;7.77;;;6.97;;
15287;SDS011;7745;48.708;9.026;2022-09-12T03:39:09;6.60;;;5.87;;
15287;SDS011;7745;48.708;9.026;2022-09-12T03:41:36;9.33;;;6.60;;
15287;SDS011;7745;48.708;9.026;2022-09-12T03:44:03;10.40;;;6.77;;
15287;SDS011;7745;48.708;9.026;2022-09-12T03:46:30;7.07;;;6.37;;
15287;SDS011;7745;48.708;9.026;2022-09-12T03:48:56;9.33;;;6.40;;
15287;SDS011;7745;48.708;9.026;2022-09-12T03:51:24;7.30;;;6.60;;
15287;SDS011;7745;48.708;9.026;2022-09-12T03:53:51;7.57;;;6.87;;
15287;SDS011;7745;48.708;9.026;2022-09-12T03:56:18;9.70;;;6.63;;
15287;SDS011;7745;48.708;9.026;2022-09-12T03:58:45;8.77;;;6.53;;
15287;SDS011;7745;48.708;9.026;2022-09-12T04:01:13;9.03;;;7.07;;
15287;SDS011;7745;48.708;9.026;2022-09-12T04:03:41;9.43;;;5.90;;
15287;SDS011;7745;48.708;9.026;2022-09-12T04:06:10;7.97;;;6.87;;
15287;SDS011;7745;48.708;9.026;2022-09-12T04:08:41;8.60;;;7.03;;
15287;SDS011;7745;48.708;9.026;2022-09-12T04:11:09;10.03;;;6.93;;
15287;SDS011;7745;48.708;9.026;2022-09-12T04:13:37;9.00;;;6.90;;
15287;SDS011;7745;48.708;9.026;2022-09-12T04:16:05;8.93;;;7.10;;
15287;SDS011;7745;48.708;9.026;2022-09-12T04:18:32;7.73;;;6.40;;
15287;SDS011;7745;48.708;9.026;2022-09-12T04:21:02;7.07;;;6.40;;
15287;SDS011;7745;48.708;9.026;2022-09-12T04:23:29;8.07;;;7.27;;
15287;SDS011;7745;48.708;9.026;2022-09-12T04:25:58;8.43;;;6.53;;
15287;SDS011;7745;48.708;9.026;2022-09-12T04:28:27;9.47;;;6.33;;
15287;SDS011;7745;48.708;9.026;2022-09-12T04:30:54;7.13;;;6.33;;
15287;SDS011;7745;48.708;9.026;2022-09-12T04:33:21;8.73;;;6.80;;
15287;SDS011;7745;48.708;9.026;2022-09-12T04:35:48;9.20;;;7.33;;
15287;SDS011;7745;48.708;9.026;2022-09-12T04:38:15;7.20;;;6.50;;
15287;SDS011;7745;48.708;9.026;2022-09-12T04:40:41;7.83;;;7.03;;
15287;SDS011;7745;48.708;9.026;2022-09-12T04:43:10;8.87;;;6.50;;
15287;SDS011;7745;48.708;9.026;2022-09-12T04:45:36;7.10;;;6.50;;
15287;SDS011;7745;48.708;9.026;2022-09-12T04:48:03;7.27;;;6.50;;
15287;SDS011;7745;48.708;9.026;2022-09-12T04:50:30;8.83;;;6.80;;
15287;SDS011;7745;48.708;9.026;2022-09-12T04:52:57;7.83;;;6.77;;
15287;SDS011;7745;48.708;9.026;2022-09-12T04:55:24;8.27;;;6.67;;
15287;SDS011;7745;48.708;9.026;2022-09-12T04:57:51;12.10;;;7.00;;
15287;SDS011;7745;48.708;9.026;2022-09-12T05:00:19;7.73;;;7.00;;
15287;SDS011;7745;48.708;9.026;2022-09-12T05:02:46;8.87;;;6.67;;
15287;SDS011;7745;48.708;9.026;2022-09-12T05:05:12;7.93;;;6.90;;
15287;SDS011;7745;48.708;9.026;2022-09-12T05:07:40;7.57;;;6.60;;
15287;SDS011;7745;48.708;9.026;2022-09-12T05:10:07;8.07;;;6.90;;
15287;SDS011;7745;48.708;9.026;2022-09-12T05:12:36;8.57;;;7.27;;
15287;SDS011;7745;48.708;9.026;2022-09-12T05:15:04;8.33;;;7.17;;
15287;SDS011;7745;48.708;9.026;2022-09-12T05:17:33;9.13;;;7.17;;
15287;SDS011;7745;48.708;9.026;2022-09-12T05:20:00;8.93;;;7.40;;
15287;SDS011;7745;48.708;9.026;2022-09-12T05:22:27;7.93;;;6.57;;
15287;SDS011;7745;48.708;9.026;2022-09-12T05:24:54;7.43;;;6.47;;
15287;SDS011;7745;48.708;9.026;2022-09-12T05:27:20;8.63;;;7.73;;
15287;SDS011;7745;48.708;9.026;2022-09-12T05:29:47;8.80;;;7.63;;
15287;SDS011;7745;48.708;9.026;2022-09-12T05:32:14;10.67;;;8.63;;
15287;SDS011;7745;48.708;9.026;2022-09-12T05:34:42;12.13;;;8.20;;
15287;SDS011;7745;48.708;9.026;2022-09-12T05:37:09;9.30;;;8.30;;
15287;SDS011;7745;48.708;9.026;2022-09-12T05:39:37;8.40;;;7.60;;
15287;SDS011;7745;48.708;9.026;2022-09-12T05:42:04;9.80;;;7.77;;
15287;SDS011;7745;48.708;9.026;2022-09-12T05:44:31;10.00;;;7.80;;
15287;SDS011;7745;48.708;9.026;2022-09-12T05:46:58;11.17;;;7.90;;
15287;SDS011;7745;48.708;9.026;2022-09-12T05:49:25;14.37;;;7.93;;
15287;SDS011;7745;48.708;9.026;2022-09-12T05:51:53;8.83;;;7.90;;
15287;SDS011;7745;48.708;9.026;2022-09-12T05:54:19;10.90;;;7.87;;
15287;SDS011;7745;48.708;9.026;2022-09-12T05:56:46;9.57;;;7.30;;
15287;SDS011;7745;48.708;9.026;2022-09-12T05:59:14;12.27;;;8.23;;
15287;SDS011;7745;48.708;9.026;2022-09-12T06:01:43;11.67;;;7.67;;
15287;SDS011;7745;48.708;9.026;2022-09-12T06:04:10;9.27;;;8.07;;
15287;SDS011;7745;48.708;9.026;2022-09-12T06:06:38;9.27;;;8.13;;
15287;SDS011;7745;48.708;9.026;2022-09-12T06:09:09;8.50;;;7.40;;
15287;SDS011;7745;48.708;9.026;2022-09-12T06:11:37;8.90;;;8.00;;
15287;SDS011;7745;48.708;9.026;2022-09-12T06:14:06;10.70;;;8.87;;
15287;SDS011;7745;48.708;9.026;2022-09-12T06:16:34;10.50;;;8.20;;
15287;SDS011;7745;48.708;9.026;2022-09-12T06:19:02;9.40;;;8.10;;
15287;SDS011;7745;48.708;9.026;2022-09-12T06:21:31;11.67;;;8.23;;
15287;SDS011;7745;48.708;9.026;2022-09-12T06:23:59;9.10;;;8.10;;
15287;SDS011;7745;48.708;9.026;2022-09-12T06:26:28;9.30;;;8.30;;
15287;SDS011;7745;48.708;9.026;2022-09-12T06:28:56;12.77;;;8.90;;
15287;SDS011;7745;48.708;9.026;2022-09-12T06:31:25;11.17;;;9.40;;
15287;SDS011;7745;48.708;9.026;2022-09-12T06:33:54;10.10;;;9.10;;
15287;SDS011;7745;48.708;9.026;2022-09-12T06:36:23;12.57;;;9.70;;
15287;SDS011;7745;48.708;9.026;2022-09-12T06:38:54;11.33;;;9.60;;
15287;SDS011;7745;48.708;9.026;2022-09-12T06:41:23;15.90;;;10.47;;
15287;SDS011;7745;48.708;9.026;2022-09-12T06:43:52;15.43;;;10.37;;
15287;SDS011;7745;48.708;9.026;2022-09-12T06:46:19;21.50;;;11.43;;
15287;SDS011;7745;48.708;9.026;2022-09-12T06:48:46;23.90;;;10.97;;
15287;SDS011;7745;48.708;9.026;2022-09-12T06:51:15;15.80;;;11.17;;
15287;SDS011;7745;48.708;9.026;2022-09-12T06:53:44;18.83;;;11.43;;
15287;SDS011;7745;48.708;9.026;2022-09-12T06:56:12;16.30;;;11.03;;
15287;SDS011;7745;48.708;9.026;2022-09-12T06:58:41;18.03;;;11.33;;
15287;SDS011;7745;48.708;9.026;2022-09-12T07:01:10;21.27;;;12.57;;
15287;SDS011;7745;48.708;9.026;2022-09-12T07:03:39;21.10;;;11.30;;
15287;SDS011;7745;48.708;9.026;2022-09-12T07:06:07;21.17;;;11.77;;
15287;SDS011;7745;48.708;9.026;2022-09-12T07:08:36;23.23;;;11.47;;
15287;SDS011;7745;48.708;9.026;2022-09-12T07:11:07;18.23;;;11.97;;
15287;SDS011;7745;48.708;9.026;2022-09-12T07:13:36;19.67;;;11.00;;
15287;SDS011;7745;48.708;9.026;2022-09-12T07:16:03;28.50;;;12.27;;
15287;SDS011;7745;48.708;9.026;2022-09-12T07:18:32;21.43;;;11.30;;
15287;SDS011;7745;48.708;9.026;2022-09-12T07:21:00;23.83;;;11.60;;
15287;SDS011;7745;48.708;9.026;2022-09-12T07:23:27;25.47;;;11.90;;
15287;SDS011;7745;48.708;9.026;2022-09-12T07:25:54;28.73;;;11.10;;
15287;SDS011;7745;48.708;9.026;2022-09-12T07:28:22;16.93;;;11.10;;
15287;SDS011;7745;48.708;9.026;2022-09-12T07:30:51;13.70;;;10.80;;
15287;SDS011;7745;48.708;9.026;2022-09-12T07:33:20;17.23;;;10.37;;
15287;SDS011;7745;48.708;9.026;2022-09-12T07:35:48;16.77;;;11.30;;
15287;SDS011;7745;48.708;9.026;2022-09-12T07:38:17;16.33;;;11.10;;
15287;SDS011;7745;48.708;9.026;2022-09-12T07:40:44;16.83;;;10.40;;
15287;SDS011;7745;48.708;9.026;2022-09-12T07:43:11;24.20;;;10.83;;
15287;SDS011;7745;48.708;9.026;2022-09-12T07:45:38;16.20;;;10.30;;
15287;SDS011;7745;48.708;9.026;2022-09-12T07:48:06;11.93;;;8.70;;
15287;SDS011;7745;48.708;9.026;2022-09-12T07:50:33;13.67;;;9.00;;
15287;SDS011;7745;48.708;9.026;2022-09-12T07:53:02;10.50;;;7.83;;
15287;SDS011;7745;48.708;9.026;2022-09-12T07:55:29;10.10;;;7.57;;
15287;SDS011;7745;48.708;9.026;2022-09-12T07:57:56;9.27;;;7.03;;
15287;SDS011;7745;48.708;9.026;2022-09-12T08:00:23;9.40;;;6.83;;
15287;SDS011;7745;48.708;9.026;2022-09-12T08:02:51;7.97;;;6.67;;
15287;SDS011;7745;48.708;9.026;2022-09-12T08:05:19;8.97;;;5.97;;
15287;SDS011;7745;48.708;9.026;2022-09-12T08:07:46;8.27;;;5.67;;
15287;SDS011;7745;48.708;9.026;2022-09-12T08:10:15;6.00;;;4.50;;
15287;SDS011;7745;48.708;9.026;2022-09-12T08:12:42;7.33;;;4.87;;
15287;SDS011;7745;48.708;9.026;2022-09-12T08:15:08;6.43;;;4.13;;
15287;SDS011;7745;48.708;9.026;2022-09-12T08:17:35;3.23;;;2.97;;
15287;SDS011;7745;48.708;9.026;2022-09-12T08:20:03;3.50;;;2.93;;
15287;SDS011;7745;48.708;9.026;2022-09-12T08:22:31;3.10;;;2.87;;
15287;SDS011;7745;48.708;9.026;2022-09-12T08:24:57;5.10;;;2.43;;
15287;SDS011;7745;48.708;9.026;2022-09-12T08:27:26;2.47;;;2.20;;
15287;SDS011;7745;48.708;9.026;2022-09-12T08:29:52;3.00;;;2.57;;
15287;SDS011;7745;48.708;9.026;2022-09-12T08:32:19;2.70;;;2.43;;
15287;SDS011;7745;48.708;9.026;2022-09-12T08:34:46;2.50;;;2.30;;
15287;SDS011;7745;48.708;9.026;2022-09-12T08:37:13;3.57;;;2.30;;
15287;SDS011;7745;48.708;9.026;2022-09-12T08:39:40;3.20;;;2.40;;
15287;SDS011;7745;48.708;9.026;2022-09-12T08:42:08;4.23;;;2.13;;
15287;SDS011;7745;48.708;9.026;2022-09-12T08:44:49;5.77;;;2.10;;
15287;SDS011;7745;48.708;9.026;2022-09-12T08:47:34;2.27;;;2.07;;
15287;SDS011;7745;48.708;9.026;2022-09-12T08:50:11;2.30;;;2.10;;
15287;SDS011;7745;48.708;9.026;2022-09-12T08:52:43;2.47;;;2.20;;
15287;SDS011;7745;48.708;9.026;2022-09-12T08:55:22;2.27;;;2.07;;
15287;SDS011;7745;48.708;9.026;2022-09-12T08:57:51;4.63;;;2.00;;
15287;SDS011;7745;48.708;9.026;2022-09-12T09:00:20;3.57;;;2.23;;
15287;SDS011;7745;48.708;9.026;2022-09-12T09:05:44;2.57;;;2.37;;
15287;SDS011;7745;48.708;9.026;2022-09-12T09:08:20;2.63;;;2.30;;
15287;SDS011;7745;48.708;9.026;2022-09-12T09:10:57;2.47;;;2.27;;
15287;SDS011;7745;48.708;9.026;2022-09-12T09:13:32;2.50;;;2.03;;
15287;SDS011;7745;48.708;9.026;2022-09-12T09:16:31;3.13;;;2.83;;
15287;SDS011;7745;48.708;9.026;2022-09-12T09:19:01;2.33;;;2.13;;
15287;SDS011;7745;48.708;9.026;2022-09-12T09:21:32;2.60;;;2.23;;
15287;SDS011;7745;48.708;9.026;2022-09-12T09:24:04;3.17;;;2.40;;
15287;SDS011;7745;48.708;9.026;2022-09-12T09:26:38;2.47;;;2.27;;
15287;SDS011;7745;48.708;9.026;2022-09-12T09:29:10;5.17;;;2.23;;
15287;SDS011;7745;48.708;9.026;2022-09-12T09:31:43;5.70;;;2.47;;
15287;SDS011;7745;48.708;9.026;2022-09-12T09:34:14;4.07;;;2.50;;
15287;SDS011;7745;48.708;9.026;2022-09-12T09:36:47;3.40;;;2.10;;
15287;SDS011;7745;48.708;9.026;2022-09-12T09:39:18;2.43;;;2.20;;
15287;SDS011;7745;48.708;9.026;2022-09-12T09:41:58;3.07;;;2.10;;
15287;SDS011;7745;48.708;9.026;2022-09-12T09:44:36;3.20;;;2.23;;
15287;SDS011;7745;48.708;9.026;2022-09-12T09:47:05;2.87;;;2.20;;
15287;SDS011;7745;48.708;9.026;2022-09-12T09:49:35;2.70;;;1.87;;
15287;SDS011;7745;48.708;9.026;2022-09-12T09:52:02;2.30;;;2.10;;
15287;SDS011;7745;48.708;9.026;2022-09-12T09:54:33;2.83;;;2.27;;
15287;SDS011;7745;48.708;9.026;2022-09-12T09:57:02;2.20;;;1.80;;
15287;SDS011;7745;48.708;9.026;2022-09-12T09:59:30;2.10;;;1.90;;
15287;SDS011;7745;48.708;9.026;2022-09-12T10:01:59;2.00;;;1.90;;
15287;SDS011;7745;48.708;9.026;2022-09-12T10:04:31;3.10;;;1.90;;
15287;SDS011;7745;48.708;9.026;2022-09-12T10:07:00;3.37;;;1.90;;
15287;SDS011;7745;48.708;9.026;2022-09-12T10:09:29;4.33;;;2.10;;
15287;SDS011;7745;48.708;9.026;2022-09-12T10:11:58;9.10;;;2.10;;
15287;SDS011;7745;48.708;9.026;2022-09-12T10:14:28;5.43;;;1.70;;
15287;SDS011;7745;48.708;9.026;2022-09-12T10:19:55;2.00;;;1.60;;
15287;SDS011;7745;48.708;9.026;2022-09-12T10:22:23;1.87;;;1.67;;
15287;SDS011;7745;48.708;9.026;2022-09-12T10:24:53;2.97;;;1.60;;
15287;SDS011;7745;48.708;9.026;2022-09-12T10:27:22;1.50;;;1.33;;
15287;SDS011;7745;48.708;9.026;2022-09-12T10:29:52;1.50;;;1.40;;
15287;SDS011;7745;48.708;9.026;2022-09-12T10:32:22;1.83;;;1.40;;
15287;SDS011;7745;48.708;9.026;2022-09-12T10:34:56;6.93;;;5.30;;
15287;SDS011;7745;48.708;9.026;2022-09-12T10:37:28;1.37;;;1.27;;
15287;SDS011;7745;48.708;9.026;2022-09-12T10:39:57;1.30;;;1.20;;
15287;SDS011;7745;48.708;9.026;2022-09-12T10:42:45;1.30;;;1.20;;
15287;SDS011;7745;48.708;9.026;2022-09-12T10:45:17;1.10;;;1.00;;
15287;SDS011;7745;48.708;9.026;2022-09-12T10:47:49;0.90;;;0.90;;
15287;SDS011;7745;48.708;9.026;2022-09-12T10:50:23;2.43;;;1.00;;
15287;SDS011;7745;48.708;9.026;2022-09-12T10:52:53;2.40;;;1.10;;
15287;SDS011;7745;48.708;9.026;2022-09-12T10:55:22;1.00;;;1.00;;
15287;SDS011;7745;48.708;9.026;2022-09-12T10:58:02;1.80;;;1.00;;
15287;SDS011;7745;48.708;9.026;2022-09-12T11:00:36;1.27;;;1.10;;
15287;SDS011;7745;48.708;9.026;2022-09-12T11:03:48;1.40;;;1.00;;
15287;SDS011;7745;48.708;9.026;2022-09-12T11:06:12;5.77;;;1.20;;
15287;SDS011;7745;48.708;9.026;2022-09-12T11:08:50;1.83;;;1.00;;
15287;SDS011;7745;48.708;9.026;2022-09-12T11:11:32;1.30;;;1.20;;
15287;SDS011;7745;48.708;9.026;2022-09-12T11:14:12;6.32;;;1.45;;
15287;SDS011;7745;48.708;9.026;2022-09-12T11:16:48;1.40;;;1.17;;
15287;SDS011;7745;48.708;9.026;2022-09-12T11:22:21;4.95;;;1.45;;
15287;SDS011;7745;48.708;9.026;2022-09-12T11:25:12;2.53;;;0.88;;
15287;SDS011;7745;48.708;9.026;2022-09-12T11:27:59;4.63;;;1.20;;
15287;SDS011;7745;48.708;9.026;2022-09-12T11:30:48;1.10;;;1.00;;
15287;SDS011;7745;48.708;9.026;2022-09-12T11:33:28;3.20;;;0.90;;
15287;SDS011;7745;48.708;9.026;2022-09-12T11:36:04;2.95;;;1.30;;
15287;SDS011;7745;48.708;9.026;2022-09-12T11:38:40;0.98;;;0.73;;
15287;SDS011;7745;48.708;9.026;2022-09-12T11:41:18;5.70;;;1.45;;
15287;SDS011;7745;48.708;9.026;2022-09-12T11:43:49;0.80;;;0.80;;
15287;SDS011;7745;48.708;9.026;2022-09-12T11:46:21;3.40;;;0.90;;
15287;SDS011;7745;48.708;9.026;2022-09-12T11:48:53;0.68;;;0.68;;
15287;SDS011;7745;48.708;9.026;2022-09-12T11:51:24;3.58;;;1.05;;
15287;SDS011;7745;48.708;9.026;2022-09-12T11:54:03;2.15;;;1.20;;
15287;SDS011;7745;48.708;9.026;2022-09-12T11:56:37;1.63;;;1.23;;
15287;SDS011;7745;48.708;9.026;2022-09-12T11:59:11;1.38;;;1.20;;
15287;SDS011;7745;48.708;9.026;2022-09-12T12:01:45;1.40;;;1.05;;
15287;SDS011;7745;48.708;9.026;2022-09-12T12:04:17;1.30;;;0.90;;
15287;SDS011;7745;48.708;9.026;2022-09-12T12:06:50;1.23;;;0.98;;
15287;SDS011;7745;48.708;9.026;2022-09-12T12:09:23;1.20;;;0.80;;
15287;SDS011;7745;48.708;9.026;2022-09-12T12:11:51;1.20;;;1.10;;
15287;SDS011;7745;48.708;9.026;2022-09-12T12:14:22;1.00;;;0.90;;
15287;SDS011;7745;48.708;9.026;2022-09-12T12:16:55;1.27;;;1.00;;
15287;SDS011;7745;48.708;9.026;2022-09-12T12:22:13;7.60;;;1.40;;
15287;SDS011;7745;48.708;9.026;2022-09-12T12:27:50;6.65;;;1.80;;
15287;SDS011;7745;48.708;9.026;2022-09-12T12:48:46;1.75;;;1.00;;
15287;SDS011;7745;48.708;9.026;2022-09-12T12:54:26;1.33;;;1.02;;
15287;SDS011;7745;48.708;9.026;2022-09-12T12:57:14;2.47;;;0.95;;
15287;SDS011;7745;48.708;9.026;2022-09-12T13:00:00;2.30;;;0.90;;
15287;SDS011;7745;48.708;9.026;2022-09-12T13:02:31;2.55;;;1.05;;
15287;SDS011;7745;48.708;9.026;2022-09-12T13:05:01;4.88;;;1.10;;
15287;SDS011;7745;48.708;9.026;2022-09-12T13:07:32;1.73;;;1.02;;
15287;SDS011;7745;48.708;9.026;2022-09-12T13:10:03;1.05;;;0.85;;
15287;SDS011;7745;48.708;9.026;2022-09-12T13:12:32;1.80;;;1.00;;
15287;SDS011;7745;48.708;9.026;2022-09-12T13:15:27;1.85;;;0.88;;
15287;SDS011;7745;48.708;9.026;2022-09-12T13:18:10;1.77;;;1.08;;
15287;SDS011;7745;48.708;9.026;2022-09-12T13:20:43;1.77;;;0.93;;
15287;SDS011;7745;48.708;9.026;2022-09-12T13:23:20;1.30;;;0.85;;
15287;SDS011;7745;48.708;9.026;2022-09-12T13:25:51;0.80;;;0.80;;
15287;SDS011;7745;48.708;9.026;2022-09-12T13:28:18;1.23;;;0.85;;
15287;SDS011;7745;48.708;9.026;2022-09-12T13:30:47;2.25;;;1.00;;
15287;SDS011;7745;48.708;9.026;2022-09-12T13:33:24;4.15;;;0.90;;
15287;SDS011;7745;48.708;9.026;2022-09-12T13:36:08;3.05;;;0.82;;
15287;SDS011;7745;48.708;9.026;2022-09-12T13:39:09;1.67;;;1.00;;
15287;SDS011;7745;48.708;9.026;2022-09-12T13:41:55;1.50;;;0.90;;
15287;SDS011;7745;48.708;9.026;2022-09-12T13:44:40;3.33;;;0.77;;
15287;SDS011;7745;48.708;9.026;2022-09-12T13:47:11;0.93;;;0.80;;
15287;SDS011;7745;48.708;9.026;2022-09-12T13:49:40;1.50;;;0.80;;
15287;SDS011;7745;48.708;9.026;2022-09-12T13:52:08;1.88;;;1.00;;
15287;SDS011;7745;48.708;9.026;2022-09-12T13:54:42;0.90;;;0.90;;
15287;SDS011;7745;48.708;9.026;2022-09-12T13:57:24;0.85;;;0.80;;
15287;SDS011;7745;48.708;9.026;2022-09-12T13:59:54;1.10;;;0.80;;
15287;SDS011;7745;48.708;9.026;2022-09-12T14:02:24;5.65;;;1.40;;
15287;SDS011;7745;48.708;9.026;2022-09-12T14:04:53;3.00;;;1.00;;
15287;SDS011;7745;48.708;9.026;2022-09-12T14:07:33;3.88;;;0.95;;
15287;SDS011;7745;48.708;9.026;2022-09-12T14:10:06;2.45;;;1.00;;
15287;SDS011;7745;48.708;9.026;2022-09-12T14:12:35;1.30;;;0.90;;
15287;SDS011;7745;48.708;9.026;2022-09-12T14:15:13;4.03;;;1.00;;
15287;SDS011;7745;48.708;9.026;2022-09-12T14:17:48;2.63;;;0.95;;
15287;SDS011;7745;48.708;9.026;2022-09-12T14:20:17;3.58;;;1.10;;
15287;SDS011;7745;48.708;9.026;2022-09-12T14:22:47;3.53;;;0.93;;
15287;SDS011;7745;48.708;9.026;2022-09-12T14:25:15;0.93;;;0.80;;
15287;SDS011;7745;48.708;9.026;2022-09-12T14:27:45;1.08;;;0.90;;
15287;SDS011;7745;48.708;9.026;2022-09-12T14:30:22;1.77;;;0.80;;
15287;SDS011;7745;48.708;9.026;2022-09-12T14:35:45;2.58;;;0.90;;
15287;SDS011;7745;48.708;9.026;2022-09-12T14:38:17;2.28;;;0.90;;
15287;SDS011;7745;48.708;9.026;2022-09-12T14:40:49;1.23;;;0.80;;
15287;SDS011;7745;48.708;9.026;2022-09-12T14:43:19;2.35;;;0.95;;
15287;SDS011;7745;48.708;9.026;2022-09-12T14:45:51;3.40;;;1.05;;
15287;SDS011;7745;48.708;9.026;2022-09-12T14:48:21;0.70;;;0.70;;
15287;SDS011;7745;48.708;9.026;2022-09-12T14:50:52;4.38;;;1.20;;
15287;SDS011;7745;48.708;9.026;2022-09-12T14:53:20;1.20;;;0.90;;
15287;SDS011;7745;48.708;9.026;2022-09-12T14:55:52;1.15;;;1.02;;
15287;SDS011;7745;48.708;9.026;2022-09-12T14:58:25;1.00;;;0.90;;
15287;SDS011;7745;48.708;9.026;2022-09-12T15:00:54;3.67;;;0.88;;
15287;SDS011;7745;48.708;9.026;2022-09-12T15:03:26;2.30;;;1.10;;
15287;SDS011;7745;48.708;9.026;2022-09-12T15:05:54;1.27;;;1.10;;
15287;SDS011;7745;48.708;9.026;2022-09-12T15:08:21;1.27;;;1.00;;
15287;SDS011;7745;48.708;9.026;2022-09-12T15:10:52;1.40;;;0.82;;
15287;SDS011;7745;48.708;9.026;2022-09-12T15:13:22;2.45;;;0.85;;
15287;SDS011;7745;48.708;9.026;2022-09-12T15:15:51;2.75;;;1.20;;
15287;SDS011;7745;48.708;9.026;2022-09-12T15:18:19;1.50;;;1.20;;
15287;SDS011;7745;48.708;9.026;2022-09-12T15:20:50;1.95;;;1.13;;
15287;SDS011;7745;48.708;9.026;2022-09-12T15:23:26;1.85;;;0.85;;
15287;SDS011;7745;48.708;9.026;2022-09-12T15:26:07;16.00;;;2.15;;
15287;SDS011;7745;48.708;9.026;2022-09-12T15:28:37;1.73;;;1.10;;
15287;SDS011;7745;48.708;9.026;2022-09-12T15:31:05;3.92;;;1.10;;
15287;SDS011;7745;48.708;9.026;2022-09-12T15:33:37;3.53;;;1.00;;
15287;SDS011;7745;48.708;9.026;2022-09-12T15:36:07;1.00;;;0.70;;
15287;SDS011;7745;48.708;9.026;2022-09-12T15:38:39;0.70;;;0.63;;
15287;SDS011;7745;48.708;9.026;2022-09-12T15:41:08;2.55;;;0.90;;
15287;SDS011;7745;48.708;9.026;2022-09-12T15:43:37;1.05;;;0.70;;
15287;SDS011;7745;48.708;9.026;2022-09-12T15:46:04;0.95;;;0.88;;
15287;SDS011;7745;48.708;9.026;2022-09-12T15:48:31;1.67;;;1.08;;
15287;SDS011;7745;48.708;9.026;2022-09-12T15:50:58;4.90;;;1.35;;
15287;SDS011;7745;48.708;9.026;2022-09-12T15:53:27;1.33;;;0.80;;
15287;SDS011;7745;48.708;9.026;2022-09-12T15:55:53;1.35;;;1.00;;
15287;SDS011;7745;48.708;9.026;2022-09-12T15:58:20;2.78;;;1.00;;
15287;SDS011;7745;48.708;9.026;2022-09-12T16:00:47;2.80;;;0.85;;